Time;durP1;ratioP1;P1;durP2;ratioP2;P2;SDS_P1;SDS_P2;PMS_P1;PMS_P2;Temp;Humidity;BMP_temperature;BMP_pressure;BME280_temperature;BME280_humidity;BME280_pressure;Samples;Min_cycle;Max_cycle;Signal;HPM_P1;HPM_P2
2023/12/04 00:02:19;;;;;;;21.35;10.95;;;;;;;-3.37;98.49;100582.25;4985046;28;20046;-53
2023/12/04 00:04:50;;;;;;;19.15;9.85;;;;;;;-3.31;98.16;100572.28;4993632;28;20049;-55
2023/12/04 00:07:20;;;;;;;19.83;9.52;;;;;;;-3.24;97.97;100573.44;5004517;28;20550;-56
2023/12/04 00:09:52;;;;;;;18.08;9.82;;;;;;;-3.11;98.09;100570.59;4993821;28;20045;-55
2023/12/04 00:12:23;;;;;;;21.63;8.93;;;;;;;-2.91;98.41;100562.91;5003627;28;20057;-54
2023/12/04 00:14:53;;;;;;;16.02;8.90;;;;;;;-2.76;98.25;100562.69;4993654;28;20395;-55
2023/12/04 00:17:23;;;;;;;20.13;9.02;;;;;;;-2.66;97.96;100563.13;5003660;28;20148;-54
2023/12/04 00:19:54;;;;;;;20.55;8.95;;;;;;;-2.59;97.68;100555.72;5003614;28;20079;-54
2023/12/04 00:22:24;;;;;;;14.32;8.52;;;;;;;-2.54;98.03;100554.22;4999328;28;20140;-56
2023/12/04 00:24:56;;;;;;;19.08;10.02;;;;;;;-2.44;97.39;100553.78;5003739;28;20057;-56
2023/12/04 00:27:27;;;;;;;16.00;8.68;;;;;;;-2.34;97.67;100548.22;4994308;28;20528;-56
2023/12/04 00:29:58;;;;;;;17.00;8.65;;;;;;;-2.24;97.08;100555.47;5003851;28;20510;-55
2023/12/04 00:32:29;;;;;;;20.20;8.52;;;;;;;-2.19;97.17;100548.81;4993891;28;20053;-55
2023/12/04 00:35:00;;;;;;;15.30;8.07;;;;;;;-2.03;97.06;100544.31;5003668;28;20057;-52
2023/12/04 00:37:30;;;;;;;16.00;8.45;;;;;;;-1.82;96.91;100550.25;4993715;28;20705;-56
2023/12/04 00:40:03;;;;;;;18.73;8.55;;;;;;;-1.67;96.82;100533.69;5011685;28;20063;-56
2023/12/04 00:42:33;;;;;;;21.02;10.10;;;;;;;-1.55;96.29;100534.16;5004827;28;20061;-54
2023/12/04 00:45:05;;;;;;;23.40;10.48;;;;;;;-1.43;95.94;100534.59;5023306;28;20804;-56
2023/12/04 00:47:35;;;;;;;22.67;11.52;;;;;;;-1.26;95.81;100542.03;5010331;28;20057;-52
2023/12/04 00:50:06;;;;;;;18.85;9.07;;;;;;;-1.11;95.57;100545.16;5008035;28;20056;-53
2023/12/04 00:52:37;;;;;;;18.27;9.23;;;;;;;-0.95;95.09;100542.31;4998141;28;20822;-55
2023/12/04 00:55:09;;;;;;;19.95;8.88;;;;;;;-0.93;94.24;100538.06;5007890;28;20150;-56
2023/12/04 00:57:40;;;;;;;18.30;8.90;;;;;;;-0.81;93.45;100529.06;4978526;28;20054;-54
2023/12/04 01:00:11;;;;;;;18.00;9.05;;;;;;;-0.78;93.57;100536.84;4988146;28;20045;-56
2023/12/04 01:02:42;;;;;;;19.98;8.60;;;;;;;-0.73;92.81;100535.31;4999704;28;20061;-56
2023/12/04 01:05:13;;;;;;;14.82;7.53;;;;;;;-0.61;93.66;100525.47;5007306;28;20045;-56
2023/12/04 01:07:43;;;;;;;17.20;8.75;;;;;;;-0.51;93.52;100530.06;4997261;28;24665;-55
2023/12/04 01:10:15;;;;;;;14.50;8.63;;;;;;;-0.43;93.25;100526.06;5007155;28;20050;-53
2023/12/04 01:12:46;;;;;;;20.83;8.38;;;;;;;-0.36;92.46;100510.84;4997525;28;20041;-55
2023/12/04 01:15:16;;;;;;;18.88;8.45;;;;;;;-0.25;92.64;100514.63;5007484;28;20136;-54
2023/12/04 01:17:47;;;;;;;19.77;9.38;;;;;;;-0.14;92.36;100508.13;4997218;28;20491;-52
2023/12/04 01:20:17;;;;;;;17.15;8.48;;;;;;;-0.08;92.21;100507.44;5007333;28;20547;-56
2023/12/04 01:22:48;;;;;;;16.38;6.82;;;;;;;-0.03;92.13;100505.88;4996901;28;20061;-56
2023/12/04 01:25:20;;;;;;;14.23;6.68;;;;;;;-0.03;92.16;100496.47;5007370;28;20049;-57
2023/12/04 01:27:50;;;;;;;15.07;6.40;;;;;;;0.24;92.46;100495.56;4997593;28;20080;-56
2023/12/04 01:30:21;;;;;;;10.70;6.15;;;;;;;0.47;92.10;100492.78;5007764;28;20069;-54
2023/12/04 01:32:51;;;;;;;12.45;5.78;;;;;;;0.63;91.80;100482.09;4997227;28;20468;-57
2023/12/04 01:35:22;;;;;;;12.65;5.60;;;;;;;0.72;91.27;100474.59;5007092;28;20065;-57
2023/12/04 01:37:52;;;;;;;12.20;5.15;;;;;;;0.79;91.33;100476.50;4997098;28;20136;-57
2023/12/04 01:40:24;;;;;;;10.13;5.03;;;;;;;0.86;90.96;100465.56;5006869;28;20140;-53
2023/12/04 01:42:55;;;;;;;11.85;5.15;;;;;;;0.94;90.87;100462.31;4996035;28;20496;-54
2023/12/04 01:45:25;;;;;;;12.70;5.88;;;;;;;0.99;90.73;100458.16;4998860;28;20123;-55
2023/12/04 01:47:56;;;;;;;12.15;5.47;;;;;;;1.02;90.40;100459.13;5006487;28;20056;-57
2023/12/04 01:50:27;;;;;;;12.77;5.45;;;;;;;1.20;89.90;100453.56;4996545;28;20107;-57
2023/12/04 01:52:57;;;;;;;8.00;4.45;;;;;;;1.36;89.01;100441.06;4993630;28;20053;-57
2023/12/04 01:55:30;;;;;;;9.25;4.45;;;;;;;1.28;88.33;100421.16;4977449;28;20140;-56
2023/12/04 01:58:02;;;;;;;18.73;5.38;;;;;;;1.44;88.06;100426.66;4986974;28;20165;-55
2023/12/04 02:00:33;;;;;;;11.98;5.68;;;;;;;1.48;88.01;100425.91;4977606;28;20416;-56
2023/12/04 02:03:04;;;;;;;14.05;5.25;;;;;;;1.52;87.75;100430.25;4986938;28;20492;-56
2023/12/04 02:05:36;;;;;;;13.27;5.65;;;;;;;1.51;87.15;100425.97;4987186;28;20068;-53
2023/12/04 02:08:07;;;;;;;19.80;5.97;;;;;;;1.41;87.39;100431.72;5006495;28;20140;-52
2023/12/04 02:10:39;;;;;;;16.25;5.72;;;;;;;1.29;87.80;100428.03;4996737;28;20053;-52
2023/12/04 02:13:10;;;;;;;17.08;6.28;;;;;;;1.33;88.02;100422.97;5006501;28;20110;-55
2023/12/04 02:15:40;;;;;;;13.35;6.15;;;;;;;1.36;88.68;100412.72;4978884;28;20144;-54
2023/12/04 02:18:11;;;;;;;10.93;5.93;;;;;;;1.44;88.50;100416.34;4990562;28;20104;-54
2023/12/04 02:20:43;;;;;;;12.55;6.10;;;;;;;1.47;88.24;100416.41;4996602;28;20657;-53
2023/12/04 02:23:13;;;;;;;13.18;5.85;;;;;;;1.49;87.96;100414.75;5006251;28;20519;-53
2023/12/04 02:25:45;;;;;;;12.40;4.35;;;;;;;1.49;87.89;100407.03;4996607;28;20056;-55
2023/12/04 02:28:18;;;;;;;11.00;3.53;;;;;;;1.48;87.59;100392.41;5006000;28;20800;-54
2023/12/04 02:30:51;;;;;;;8.65;3.90;;;;;;;1.70;87.40;100404.06;4996108;28;20544;-54
2023/12/04 02:33:25;;;;;;;9.40;3.25;;;;;;;1.77;86.67;100402.47;5006711;28;20054;-55
2023/12/04 02:35:57;;;;;;;10.30;3.58;;;;;;;1.83;86.52;100400.03;4995574;28;20050;-55
2023/12/04 02:38:28;;;;;;;11.05;3.95;;;;;;;1.89;86.33;100389.84;4995858;28;20069;-53
2023/12/04 02:41:01;;;;;;;11.23;4.05;;;;;;;2.01;85.88;100395.25;5005646;28;20056;-55
2023/12/04 02:43:33;;;;;;;11.38;3.10;;;;;;;2.07;85.42;100389.34;4995811;28;20050;-53
2023/12/04 02:46:03;;;;;;;12.63;2.50;;;;;;;2.11;85.30;100386.88;5005617;28;20052;-54
2023/12/04 02:48:34;;;;;;;12.20;3.30;;;;;;;2.17;84.97;100375.81;4988974;28;20064;-55
2023/12/04 02:51:06;;;;;;;9.00;2.78;;;;;;;2.19;84.17;100368.13;4986193;28;20049;-56
2023/12/04 02:53:37;;;;;;;9.23;2.80;;;;;;;2.23;84.35;100369.91;4976324;28;20174;-54
2023/12/04 02:56:10;;;;;;;13.88;2.90;;;;;;;2.27;84.12;100371.69;4985959;28;20124;-55
2023/12/04 02:58:40;;;;;;;9.70;3.05;;;;;;;2.27;83.97;100361.38;4994813;28;20045;-55
2023/12/04 03:01:11;;;;;;;9.73;3.60;;;;;;;2.24;84.22;100361.34;5004650;28;20547;-51
2023/12/04 03:03:41;;;;;;;9.10;3.33;;;;;;;2.23;84.46;100355.31;4988821;28;20092;-56
2023/12/04 03:06:12;;;;;;;16.20;3.38;;;;;;;2.20;84.70;100354.38;5004162;28;20562;-56
2023/12/04 03:08:42;;;;;;;11.63;3.25;;;;;;;2.19;84.55;100344.91;4995561;28;20401;-54
2023/12/04 03:11:14;;;;;;;14.40;3.65;;;;;;;2.18;84.70;100346.63;5004328;28;20053;-53
2023/12/04 03:13:45;;;;;;;10.43;3.30;;;;;;;2.16;84.90;100338.84;4994601;28;20213;-54
2023/12/04 03:16:18;;;;;;;7.82;3.13;;;;;;;2.15;85.06;100342.28;5003499;28;20060;-54
2023/12/04 03:18:49;;;;;;;13.45;3.30;;;;;;;2.04;85.07;100318.00;4993798;28;20057;-55
2023/12/04 03:24:03;;;;;;;9.15;3.47;;;;;;;2.07;85.74;100323.22;4996268;28;20072;-57
2023/12/04 03:26:35;;;;;;;7.38;2.90;;;;;;;2.04;85.57;100312.84;4991355;28;20057;-56
2023/12/04 03:29:05;;;;;;;9.10;3.15;;;;;;;1.78;85.74;100270.25;5000566;28;20484;-57
2023/12/04 03:31:36;;;;;;;8.93;3.10;;;;;;;2.03;85.79;100305.97;4990632;28;20059;-57
2023/12/04 03:34:06;;;;;;;11.60;3.10;;;;;;;2.03;85.82;100305.97;5000517;28;20046;-57
2023/12/04 03:36:37;;;;;;;10.45;3.58;;;;;;;2.07;86.18;100307.78;4991164;28;20436;-56
2023/12/04 03:39:08;;;;;;;12.45;3.10;;;;;;;2.14;85.42;100303.56;5000352;28;20094;-57
2023/12/04 03:41:40;;;;;;;11.38;3.55;;;;;;;2.19;85.28;100290.78;4989309;28;20488;-56
2023/12/04 03:44:10;;;;;;;12.13;3.95;;;;;;;2.13;85.10;100282.09;4998967;28;20079;-56
2023/12/04 03:46:41;;;;;;;12.13;3.45;;;;;;;2.22;85.32;100295.97;4989682;28;20053;-56
2023/12/04 03:49:11;;;;;;;15.68;3.30;;;;;;;2.19;85.05;100290.78;4999638;28;20075;-55
2023/12/04 03:51:41;;;;;;;10.48;3.20;;;;;;;2.17;85.32;100290.72;4989506;28;20069;-56
2023/12/04 03:54:13;;;;;;;14.02;3.80;;;;;;;2.14;85.49;100283.81;5000105;28;20415;-55
2023/12/04 03:56:45;;;;;;;9.25;3.80;;;;;;;2.22;84.99;100276.25;4989565;28;20056;-54
2023/12/04 03:59:16;;;;;;;9.23;4.13;;;;;;;2.26;85.01;100278.00;4999520;28;20060;-55
2023/12/04 04:01:46;;;;;;;11.35;3.92;;;;;;;2.30;85.02;100279.81;4989074;28;20088;-56
2023/12/04 04:04:16;;;;;;;11.27;4.57;;;;;;;2.28;85.11;100275.47;4999583;28;20203;-55
2023/12/04 04:06:47;;;;;;;12.18;3.45;;;;;;;2.22;85.16;100275.34;4989241;28;20053;-55
2023/12/04 04:09:19;;;;;;;12.73;3.47;;;;;;;2.22;85.21;100270.19;4999190;28;20053;-55
2023/12/04 04:11:51;;;;;;;17.67;4.20;;;;;;;2.23;85.73;100261.63;4988957;28;20064;-56
2023/12/04 04:14:23;;;;;;;10.57;3.58;;;;;;;2.27;85.39;100254.00;4999575;28;20091;-56
2023/12/04 04:16:53;;;;;;;11.98;3.97;;;;;;;2.35;85.23;100254.13;4989007;28;20068;-56
2023/12/04 04:19:24;;;;;;;8.65;3.72;;;;;;;2.39;84.68;100248.16;4997060;28;20128;-55
2023/12/04 04:21:53;;;;;;;18.92;4.32;;;;;;;2.42;84.70;100248.22;4999465;28;21203;-56
2023/12/04 04:24:24;;;;;;;11.27;3.97;;;;;;;2.45;84.43;100240.53;4999522;28;20068;-56
2023/12/04 04:26:56;;;;;;;11.23;3.90;;;;;;;2.41;84.08;100233.56;4999317;28;20063;-56
2023/12/04 04:29:26;;;;;;;10.32;3.95;;;;;;;2.40;84.70;100237.00;4989738;28;20049;-56
2023/12/04 04:31:56;;;;;;;12.38;3.50;;;;;;;2.41;85.00;100233.56;4999087;28;20049;-57
2023/12/04 04:34:27;;;;;;;13.13;4.30;;;;;;;2.38;84.88;100226.66;4989096;28;20053;-56
2023/12/04 04:36:57;;;;;;;13.70;4.32;;;;;;;2.33;85.76;100237.75;4998776;28;20045;-56
2023/12/04 04:39:28;;;;;;;10.70;4.00;;;;;;;2.24;86.26;100237.56;4990098;28;20060;-56
2023/12/04 04:42:00;;;;;;;17.58;4.55;;;;;;;2.19;86.45;100229.75;4999549;28;20060;-56
2023/12/04 04:44:30;;;;;;;13.90;4.75;;;;;;;2.19;87.00;100218.59;4989571;28;20045;-56
2023/12/04 04:47:01;;;;;;;9.27;3.65;;;;;;;2.23;87.07;100233.28;4999268;28;20056;-56
2023/12/04 04:49:32;;;;;;;13.35;3.95;;;;;;;2.25;87.32;100221.28;4989037;28;20496;-56
2023/12/04 04:52:03;;;;;;;12.43;4.03;;;;;;;2.27;86.99;100224.72;4998268;28;20051;-56
2023/12/04 04:54:33;;;;;;;12.77;4.32;;;;;;;2.01;86.98;100178.78;4989974;28;20068;-55
2023/12/04 04:57:06;;;;;;;17.67;4.38;;;;;;;2.26;87.03;100225.59;4999419;28;20053;-56
2023/12/04 04:59:36;;;;;;;14.40;5.13;;;;;;;2.25;87.13;100223.88;4988255;28;20060;-55
2023/12/04 05:02:06;;;;;;;17.65;4.03;;;;;;;2.27;87.60;100222.16;4999299;28;20050;-56
2023/12/04 05:04:37;;;;;;;15.20;4.07;;;;;;;2.21;88.06;100240.13;4989594;28;20115;-55
2023/12/04 05:07:08;;;;;;;9.55;3.95;;;;;;;2.15;88.30;100228.84;4999024;28;20053;-56
2023/12/04 05:09:38;;;;;;;15.82;4.78;;;;;;;2.16;88.44;100234.88;4989674;28;20058;-56
2023/12/04 05:12:10;;;;;;;15.38;4.32;;;;;;;2.21;88.60;100242.69;4997578;28;20132;-55
2023/12/04 05:14:41;;;;;;;15.00;5.47;;;;;;;2.15;88.42;100234.00;4989372;28;20440;-55
2023/12/04 05:17:11;;;;;;;15.10;5.32;;;;;;;2.21;88.35;100232.38;4999364;28;20160;-55
2023/12/04 05:19:42;;;;;;;12.70;5.22;;;;;;;2.19;88.74;100239.22;4989247;28;20056;-55
2023/12/04 05:22:12;;;;;;;16.85;5.40;;;;;;;2.18;88.50;100237.50;4998723;28;20061;-56
2023/12/04 05:24:43;;;;;;;18.65;6.55;;;;;;;2.19;88.88;100234.06;4988925;28;20115;-55
2023/12/04 05:27:15;;;;;;;15.18;5.50;;;;;;;2.19;88.90;100234.91;5000000;28;20041;-56
2023/12/04 05:29:46;;;;;;;19.38;6.50;;;;;;;2.26;89.04;100246.22;4992969;28;20744;-55
2023/12/04 05:32:17;;;;;;;27.55;8.45;;;;;;;2.24;88.87;100237.56;5002553;28;20956;-55
2023/12/04 05:34:47;;;;;;;22.05;7.25;;;;;;;2.21;89.04;100237.53;4992572;28;20055;-56
2023/12/04 05:37:17;;;;;;;24.02;6.90;;;;;;;2.20;89.10;100230.63;5002365;28;21037;-55
2023/12/04 05:39:48;;;;;;;21.85;6.95;;;;;;;2.19;89.44;100234.06;4992853;28;20794;-55
2023/12/04 05:42:20;;;;;;;19.73;5.68;;;;;;;2.18;89.45;100243.50;5002965;28;20139;-54
2023/12/04 05:44:53;;;;;;;15.45;4.82;;;;;;;2.18;89.84;100234.91;4993294;28;20049;-54
2023/12/04 05:47:23;;;;;;;9.55;4.55;;;;;;;2.19;89.53;100241.78;5003168;28;20362;-55
2023/12/04 05:49:54;;;;;;;12.13;4.95;;;;;;;2.20;89.99;100235.78;4991567;28;20068;-56
2023/12/04 05:52:25;;;;;;;12.00;3.67;;;;;;;2.19;89.95;100239.22;4995674;28;20057;-56
2023/12/04 05:54:55;;;;;;;8.07;3.45;;;;;;;2.16;90.02;100214.25;5002589;28;20072;-54
2023/12/04 05:57:27;;;;;;;11.07;3.75;;;;;;;2.14;90.64;100233.97;4992958;28;20122;-55
2023/12/04 05:59:58;;;;;;;8.80;3.90;;;;;;;2.10;90.62;100235.66;5002045;28;20060;-54
2023/12/04 06:02:30;;;;;;;10.45;3.60;;;;;;;2.09;90.99;100228.72;4992319;28;20061;-55
2023/12/04 06:05:01;;;;;;;11.68;3.13;;;;;;;2.09;90.88;100241.63;5001510;28;20707;-55
2023/12/04 06:07:31;;;;;;;9.70;3.40;;;;;;;2.10;91.26;100243.38;4991869;28;20045;-55
2023/12/04 06:10:02;;;;;;;12.25;3.67;;;;;;;2.09;91.38;100230.44;5002161;28;20064;-56
2023/12/04 06:12:34;;;;;;;12.05;4.68;;;;;;;2.05;91.25;100232.13;4992963;28;20045;-56
2023/12/04 06:15:06;;;;;;;10.57;3.50;;;;;;;1.91;91.54;100212.97;5001841;28;20053;-56
2023/12/04 06:17:36;;;;;;;13.52;3.42;;;;;;;1.99;92.01;100225.97;4992043;28;20057;-56
2023/12/04 06:20:08;;;;;;;15.70;3.22;;;;;;;1.97;92.34;100223.38;5001768;28;20107;-56
2023/12/04 06:22:39;;;;;;;13.27;3.47;;;;;;;1.64;92.56;100178.13;4991909;28;20060;-56
2023/12/04 06:25:11;;;;;;;10.23;3.17;;;;;;;1.92;92.59;100214.69;5001759;28;20083;-56
2023/12/04 06:27:44;;;;;;;7.90;3.05;;;;;;;1.88;93.16;100212.91;4991737;28;20057;-55
2023/12/04 06:30:15;;;;;;;9.55;3.53;;;;;;;1.89;93.40;100214.63;5002205;28;20056;-56
2023/12/04 06:32:46;;;;;;;14.13;3.95;;;;;;;1.89;93.71;100206.91;4991678;28;20053;-56
2023/12/04 06:35:18;;;;;;;14.60;3.50;;;;;;;1.86;94.53;100199.13;5001124;28;21046;-56
2023/12/04 06:37:52;;;;;;;14.02;3.47;;;;;;;1.73;94.44;100178.28;4990994;28;20057;-56
2023/12/04 06:40:23;;;;;;;12.60;3.53;;;;;;;1.81;94.79;100203.34;5000081;28;20400;-56
2023/12/04 06:42:56;;;;;;;14.82;3.35;;;;;;;1.79;95.31;100197.28;4991334;28;20050;-56
2023/12/04 06:45:27;;;;;;;9.02;3.03;;;;;;;1.81;95.57;100200.75;4991920;28;20136;-56
2023/12/04 06:47:58;;;;;;;17.25;3.50;;;;;;;1.83;95.40;100202.53;5000407;28;20061;-56
2023/12/04 06:50:28;;;;;;;12.02;3.78;;;;;;;1.81;95.79;100200.75;4991681;28;20049;-57
2023/12/04 06:52:59;;;;;;;13.52;3.85;;;;;;;1.84;95.75;100211.13;5000715;28;20068;-56
2023/12/04 06:55:29;;;;;;;17.25;3.83;;;;;;;1.87;95.75;100203.44;4991339;28;20465;-57
2023/12/04 06:58:01;;;;;;;10.00;3.80;;;;;;;1.82;95.69;100202.47;5000427;28;20100;-56
2023/12/04 07:00:32;;;;;;;12.85;3.85;;;;;;;1.86;95.88;100206.84;4991350;28;20499;-56
2023/12/04 07:03:02;;;;;;;13.90;3.60;;;;;;;1.86;96.25;100214.59;4999795;28;20057;-56
2023/12/04 07:05:33;;;;;;;10.95;3.28;;;;;;;1.84;96.36;100211.97;4990592;28;20060;-57
2023/12/04 07:08:03;;;;;;;12.68;3.22;;;;;;;1.81;97.07;100205.91;5000497;28;20095;-56
2023/12/04 07:10:34;;;;;;;12.52;3.30;;;;;;;1.79;97.04;100216.19;4990071;28;20053;-57
2023/12/04 07:13:06;;;;;;;12.60;3.40;;;;;;;1.76;97.97;100198.09;5000046;28;20052;-56
2023/12/04 07:15:36;;;;;;;10.27;3.63;;;;;;;1.77;98.00;100214.41;4991241;28;20053;-56
2023/12/04 07:18:07;;;;;;;12.45;4.15;;;;;;;1.76;98.03;100217.84;5000044;28;20056;-56
2023/12/04 07:20:37;;;;;;;12.30;4.40;;;;;;;1.76;98.18;100217.84;4990441;28;20049;-57
2023/12/04 07:23:08;;;;;;;16.65;4.40;;;;;;;1.76;98.71;100223.00;5000272;28;20045;-56
2023/12/04 07:25:38;;;;;;;11.13;4.10;;;;;;;1.79;98.56;100217.88;4990717;28;20114;-57
2023/12/04 07:28:10;;;;;;;17.10;4.55;;;;;;;1.82;98.56;100207.63;5000586;28;20516;-56
2023/12/04 07:30:41;;;;;;;17.10;3.50;;;;;;;1.85;99.00;100212.88;4989312;28;20274;-56
2023/12/04 07:33:11;;;;;;;11.35;3.42;;;;;;;1.87;98.56;100226.63;5000131;28;20069;-57
2023/12/04 07:35:42;;;;;;;14.18;3.70;;;;;;;1.90;98.78;100221.53;4990389;28;20136;-57
2023/12/04 07:38:12;;;;;;;16.00;5.03;;;;;;;1.91;98.46;100218.13;5000257;28;20128;-57
2023/12/04 07:40:42;;;;;;;11.20;3.65;;;;;;;1.91;98.70;100218.13;4990405;28;20140;-57
2023/12/04 07:43:15;;;;;;;15.38;4.55;;;;;;;1.86;99.00;100204.28;4999326;28;20187;-57
2023/12/04 07:45:46;;;;;;;15.70;4.70;;;;;;;1.90;99.14;100221.53;4989924;28;20054;-57
2023/12/04 07:48:16;;;;;;;17.35;5.35;;;;;;;1.92;99.13;100214.69;5000485;28;20046;-57
2023/12/04 07:50:47;;;;;;;18.50;5.93;;;;;;;1.94;99.41;100210.44;4990222;28;20290;-57
2023/12/04 07:53:17;;;;;;;23.83;7.13;;;;;;;1.94;99.29;100207.84;5000290;28;20049;-58
2023/12/04 07:55:48;;;;;;;19.83;7.22;;;;;;;1.94;99.11;100213.00;4990628;28;20060;-58
2023/12/04 07:58:20;;;;;;;21.63;6.90;;;;;;;1.93;99.61;100212.16;5000250;28;20559;-58
2023/12/04 08:00:50;;;;;;;21.88;7.57;;;;;;;1.90;99.74;100206.09;4989805;28;20045;-58
2023/12/04 08:03:21;;;;;;;22.15;6.45;;;;;;;1.69;99.78;100181.66;5000576;28;20083;-57
2023/12/04 08:05:51;;;;;;;18.00;5.72;;;;;;;1.95;100.00;100214.75;4989989;28;20053;-57
2023/12/04 08:08:22;;;;;;;15.10;4.20;;;;;;;1.88;100.00;100200.88;5000168;28;20061;-57
2023/12/04 08:10:53;;;;;;;20.02;5.38;;;;;;;1.91;100.00;100207.81;4990140;28;20061;-57
2023/12/04 08:13:25;;;;;;;10.18;3.88;;;;;;;1.96;100.00;100219.06;5000317;28;20049;-58
2023/12/04 08:15:55;;;;;;;19.17;6.00;;;;;;;1.95;100.00;100214.75;4990082;28;20046;-58
2023/12/04 08:18:26;;;;;;;14.68;4.35;;;;;;;1.95;100.00;100225.06;4990744;28;20045;-57
2023/12/04 08:20:56;;;;;;;18.40;5.00;;;;;;;1.94;100.00;100213.00;5000135;28;20068;-57
2023/12/04 08:23:27;;;;;;;13.95;4.32;;;;;;;1.98;100.00;100219.97;4990013;28;20045;-57
2023/12/04 08:25:57;;;;;;;16.25;4.65;;;;;;;2.03;100.00;100217.47;5000391;28;20100;-57
2023/12/04 08:28:31;;;;;;;25.45;5.13;;;;;;;2.06;100.00;100213.22;4988890;28;20713;-57
2023/12/04 08:31:01;;;;;;;18.77;4.47;;;;;;;2.08;99.95;100195.22;4999753;28;20049;-58
2023/12/04 08:33:32;;;;;;;19.05;3.90;;;;;;;2.09;99.39;100195.22;4990010;28;20053;-57
2023/12/04 08:36:02;;;;;;;17.85;4.20;;;;;;;2.10;98.90;100199.56;4999255;28;20404;-57
2023/12/04 08:38:33;;;;;;;23.70;4.82;;;;;;;2.14;98.46;100196.16;4990045;28;20176;-58
2023/12/04 08:41:04;;;;;;;19.27;4.70;;;;;;;2.20;98.14;100199.69;4999917;28;20438;-58
2023/12/04 08:43:35;;;;;;;21.05;5.03;;;;;;;2.22;97.89;100203.16;4990690;28;20049;-57
2023/12/04 08:46:07;;;;;;;18.27;5.00;;;;;;;2.24;97.54;100191.19;4999852;28;20256;-56
2023/12/04 08:48:37;;;;;;;19.92;4.40;;;;;;;2.28;97.46;100203.28;4990443;28;20676;-57
2023/12/04 08:51:08;;;;;;;22.05;5.10;;;;;;;2.28;97.27;100208.44;4999800;28;20195;-57
2023/12/04 08:53:39;;;;;;;22.52;4.47;;;;;;;2.26;97.33;100207.53;4989621;28;20053;-57
2023/12/04 08:56:10;;;;;;;17.38;5.35;;;;;;;2.23;97.08;100207.50;4999221;28;20103;-56
2023/12/04 08:58:50;;;;;;;20.08;4.88;;;;;;;2.20;97.21;100195.44;4989370;28;20052;-57
2023/12/04 09:01:20;;;;;;;15.50;4.97;;;;;;;2.15;96.92;100197.94;4998963;28;20495;-57
2023/12/04 09:03:51;;;;;;;12.70;4.30;;;;;;;2.13;97.36;100199.59;4992324;28;20369;-57
2023/12/04 09:06:21;;;;;;;13.80;4.18;;;;;;;2.10;97.36;100199.56;5003781;28;20053;-57
2023/12/04 09:09:14;;;;;;;17.35;4.70;;;;;;;2.13;96.77;100199.59;5002849;28;20862;-57
2023/12/04 09:11:46;;;;;;;16.63;4.95;;;;;;;2.13;96.49;100204.75;4993184;28;20195;-57
2023/12/04 09:14:19;;;;;;;23.00;5.13;;;;;;;2.16;95.72;100194.50;5002945;28;20057;-57
2023/12/04 09:16:50;;;;;;;19.13;4.85;;;;;;;2.19;94.81;100198.81;4993467;28;20045;-56
2023/12/04 09:19:20;;;;;;;19.52;4.32;;;;;;;2.22;94.29;100208.31;5002048;28;20252;-56
2023/12/04 09:21:50;;;;;;;15.93;4.07;;;;;;;2.26;93.60;100204.97;4991264;28;20049;-56
2023/12/04 09:24:36;;;;;;;15.82;4.18;;;;;;;2.19;93.32;100187.66;4993141;28;20053;-57
2023/12/04 09:27:07;;;;;;;16.48;5.55;;;;;;;2.30;93.09;100211.91;5001956;28;20137;-56
2023/12/04 09:29:39;;;;;;;23.17;4.10;;;;;;;2.34;92.57;100208.53;4992686;28;20076;-56
2023/12/04 09:32:10;;;;;;;17.88;4.53;;;;;;;2.36;92.67;100206.84;5002741;28;20049;-57
2023/12/04 09:34:40;;;;;;;28.70;5.97;;;;;;;2.36;92.37;100206.84;4993229;28;20057;-57
2023/12/04 09:37:10;;;;;;;21.38;6.40;;;;;;;2.37;92.22;100209.47;5002523;28;20469;-57
2023/12/04 09:39:43;;;;;;;21.67;5.55;;;;;;;2.39;92.30;100209.47;4992675;28;20060;-57
2023/12/04 09:42:14;;;;;;;20.52;5.07;;;;;;;2.38;92.29;100206.03;5001299;28;20043;-57
2023/12/04 09:44:49;;;;;;;20.88;5.63;;;;;;;2.39;92.82;100212.03;4992126;28;20977;-57
2023/12/04 09:47:20;;;;;;;20.95;4.47;;;;;;;2.37;92.31;100218.88;5002378;28;20053;-57
2023/12/04 09:49:54;;;;;;;16.05;4.47;;;;;;;2.09;92.39;100161.72;4991436;28;20045;-56
2023/12/04 09:52:25;;;;;;;18.40;4.90;;;;;;;2.38;92.68;100210.31;4997606;28;20076;-56
2023/12/04 09:54:55;;;;;;;18.75;4.95;;;;;;;2.27;92.94;100175.75;5002068;28;20162;-57
2023/12/04 09:57:26;;;;;;;19.02;4.50;;;;;;;2.39;92.38;100201.72;4993457;28;20157;-57
2023/12/04 10:00:02;;;;;;;20.05;4.93;;;;;;;2.40;92.52;100203.47;5002058;28;20480;-57
2023/12/04 10:02:33;;;;;;;18.30;4.45;;;;;;;2.39;92.77;100206.88;4992953;28;20045;-57
2023/12/04 10:05:05;;;;;;;21.38;5.07;;;;;;;2.35;92.84;100194.81;5002824;28;20092;-57
2023/12/04 10:07:36;;;;;;;20.23;4.55;;;;;;;2.35;93.03;100199.97;4992870;28;20053;-57
2023/12/04 10:10:08;;;;;;;17.65;4.05;;;;;;;2.37;92.85;100193.09;5002179;28;20060;-57
2023/12/04 10:12:39;;;;;;;21.50;4.15;;;;;;;2.19;92.45;100159.28;4992347;28;20073;-57
2023/12/04 10:15:13;;;;;;;22.02;4.90;;;;;;;2.31;92.91;100183.56;5001941;28;20072;-57
2023/12/04 10:17:44;;;;;;;15.10;4.55;;;;;;;2.37;92.90;100188.81;4992314;28;20060;-57
2023/12/04 10:20:18;;;;;;;18.05;4.32;;;;;;;2.37;92.29;100177.63;5002330;28;20084;-57
2023/12/04 10:22:57;;;;;;;15.48;3.75;;;;;;;2.12;92.29;100130.88;4992090;28;20049;-57
2023/12/04 10:25:29;;;;;;;17.05;4.40;;;;;;;2.40;92.11;100187.13;4991817;28;20163;-56
2023/12/04 10:28:10;;;;;;;23.17;5.10;;;;;;;2.44;92.22;100189.78;5001209;28;20915;-58
2023/12/04 10:30:42;;;;;;;16.60;4.28;;;;;;;2.44;92.37;100189.78;4992218;28;20068;-58
2023/12/04 10:33:14;;;;;;;20.05;4.70;;;;;;;2.43;92.18;100185.47;5002026;28;20049;-57
2023/12/04 10:35:44;;;;;;;17.38;4.35;;;;;;;2.44;91.96;100184.63;4991659;28;20139;-58
2023/12/04 10:38:15;;;;;;;25.13;4.75;;;;;;;2.45;91.92;100182.94;5001686;28;20144;-57
2023/12/04 10:40:46;;;;;;;21.10;4.70;;;;;;;2.36;91.98;100165.59;4992213;28;20144;-58
2023/12/04 10:43:21;;;;;;;18.20;4.50;;;;;;;2.33;91.93;100155.22;5002384;28;20056;-58
2023/12/04 10:45:54;;;;;;;22.88;4.60;;;;;;;2.39;92.75;100170.78;4989635;28;20103;-58
2023/12/04 10:48:24;;;;;;;12.23;3.78;;;;;;;2.36;92.89;100170.75;4996166;28;20061;-57
2023/12/04 10:50:58;;;;;;;20.70;4.47;;;;;;;2.32;93.34;100179.25;5000490;28;20132;-58
2023/12/04 10:53:28;;;;;;;17.73;4.68;;;;;;;2.24;93.86;100157.66;4990521;28;20837;-58
2023/12/04 10:56:04;;;;;;;16.05;4.07;;;;;;;2.20;93.69;100179.06;5000447;28;20068;-58
2023/12/04 10:58:37;;;;;;;20.80;5.10;;;;;;;2.24;93.96;100175.72;4990627;28;20046;-58
2023/12/04 11:01:11;;;;;;;19.08;4.15;;;;;;;2.25;94.07;100177.47;4999343;28;20053;-58
2023/12/04 11:03:47;;;;;;;19.55;3.97;;;;;;;2.08;94.31;100159.13;4989975;28;20083;-58
2023/12/04 11:06:20;;;;;;;18.05;4.72;;;;;;;2.28;94.59;100190.41;5000873;28;20075;-58
2023/12/04 11:08:52;;;;;;;17.60;5.78;;;;;;;2.25;95.09;100167.16;4990427;28;20075;-58
2023/12/04 11:11:29;;;;;;;13.13;4.25;;;;;;;2.26;95.57;100179.19;4999889;28;20092;-59
2023/12/04 11:14:03;;;;;;;19.80;4.40;;;;;;;2.24;95.65;100175.72;4990324;28;20053;-59
2023/12/04 11:16:39;;;;;;;17.52;4.47;;;;;;;2.19;96.79;100175.63;4989925;28;20401;-58
2023/12/04 11:19:18;;;;;;;19.10;5.10;;;;;;;2.14;97.45;100170.41;4999884;28;20494;-58
2023/12/04 11:21:51;;;;;;;15.70;5.18;;;;;;;2.08;97.91;100151.41;4988914;28;20053;-58
2023/12/04 11:24:22;;;;;;;15.02;5.05;;;;;;;2.07;97.66;100147.97;4999375;28;20057;-59
2023/12/04 11:26:54;;;;;;;23.00;5.72;;;;;;;2.03;97.83;100143.59;4988511;28;20808;-58
2023/12/04 11:29:26;;;;;;;23.80;5.22;;;;;;;2.05;98.00;100149.66;4995282;28;20063;-59
2023/12/04 11:31:58;;;;;;;16.73;4.53;;;;;;;2.06;97.83;100135.91;4999599;28;20045;-58
2023/12/04 11:34:28;;;;;;;20.17;5.50;;;;;;;2.07;97.58;100136.75;4989871;28;20186;-58
2023/12/04 11:37:00;;;;;;;23.10;5.63;;;;;;;2.06;97.19;100138.47;4999721;28;20387;-59
2023/12/04 11:39:30;;;;;;;21.00;5.00;;;;;;;2.09;97.20;100135.09;4989941;28;20521;-58
2023/12/04 11:42:01;;;;;;;20.85;4.57;;;;;;;2.12;96.24;100135.13;4999122;28;20076;-58
2023/12/04 11:44:33;;;;;;;16.47;4.67;;;;;;;2.12;96.13;100135.13;4930014;28;1714109;-58
2023/12/04 11:47:07;;;;;;;21.38;4.60;;;;;;;2.14;95.93;100142.03;5000405;28;20281;-58